Time;durP1;ratioP1;P1;durP2;ratioP2;P2;SDS_P1;SDS_P2;PMS_P1;PMS_P2;Temp;Humidity;BMP_temperature;BMP_pressure;BME280_temperature;BME280_humidity;BME280_pressure;Samples;Min_cycle;Max_cycle;Signal;HPM_P1;HPM_P2
2023/12/31 00:00:46;;;;;;;28.90;24.42;;;;;;;6.72;100.00;101459.63;4962223;28;20062;-57
2023/12/31 00:03:12;;;;;;;28.48;26.38;;;;;;;6.54;100.00;101476.44;4968293;28;20043;-56
2023/12/31 00:05:39;;;;;;;30.20;27.90;;;;;;;6.92;100.00;101470.72;4958324;28;20059;-56
2023/12/31 00:08:07;;;;;;;28.67;26.38;;;;;;;6.11;100.00;101466.88;4963413;28;20057;-57
2023/12/31 00:10:33;;;;;;;29.20;26.90;;;;;;;6.25;100.00;101463.63;4966318;28;20055;-57
2023/12/31 00:13:00;;;;;;;26.02;24.10;;;;;;;6.08;100.00;101483.88;4964191;28;20051;-56
2023/12/31 00:15:27;;;;;;;25.92;24.02;;;;;;;5.88;100.00;101477.94;4965312;28;20070;-56
2023/12/31 00:17:55;;;;;;;27.65;25.55;;;;;;;5.80;100.00;101485.81;4963350;28;20718;-56
2023/12/31 00:20:22;;;;;;;29.48;27.30;;;;;;;5.82;100.00;101481.22;4959516;28;20058;-56
2023/12/31 00:22:49;;;;;;;26.38;24.38;;;;;;;6.02;100.00;101487.13;4967189;28;20531;-56
2023/12/31 00:25:16;;;;;;;25.27;23.48;;;;;;;5.83;100.00;101482.03;4963437;28;20054;-56
2023/12/31 00:27:43;;;;;;;29.15;26.90;;;;;;;5.69;100.00;101484.28;4960392;28;20051;-56
2023/12/31 00:30:11;;;;;;;29.15;27.05;;;;;;;5.63;100.00;101484.88;4970602;28;20057;-56
2023/12/31 00:32:38;;;;;;;25.42;23.48;;;;;;;5.48;100.00;101475.91;4975649;28;20148;-56
2023/12/31 00:35:07;;;;;;;26.80;24.80;;;;;;;5.09;100.00;101478.06;4964012;28;20698;-56
2023/12/31 00:37:34;;;;;;;26.77;24.77;;;;;;;5.22;100.00;101476.66;4958668;28;20136;-56
2023/12/31 00:40:01;;;;;;;28.90;26.50;;;;;;;5.38;100.00;101494.41;4964102;28;20055;-56
2023/12/31 00:42:28;;;;;;;27.50;25.40;;;;;;;5.32;100.00;101492.38;4967021;28;20078;-55
2023/12/31 00:44:55;;;;;;;27.67;25.58;;;;;;;5.23;100.00;101480.97;4973358;28;20043;-56
2023/12/31 00:47:22;;;;;;;27.77;25.58;;;;;;;5.16;100.00;101490.44;4959786;28;20059;-55
2023/12/31 00:49:49;;;;;;;27.77;25.67;;;;;;;4.89;100.00;101488.72;4967347;28;20544;-56
2023/12/31 00:52:17;;;;;;;28.67;26.58;;;;;;;4.85;100.00;101487.38;4963555;28;20055;-55
2023/12/31 00:54:44;;;;;;;27.90;25.70;;;;;;;5.07;100.00;101493.16;4963834;28;20438;-55
2023/12/31 00:57:11;;;;;;;28.05;25.85;;;;;;;4.65;100.00;101484.03;4964416;28;20054;-55
2023/12/31 00:59:38;;;;;;;26.75;24.75;;;;;;;4.70;100.00;101484.41;4965431;28;20062;-56
2023/12/31 01:02:05;;;;;;;36.25;33.65;;;;;;;4.78;100.00;101473.13;4959261;28;20055;-55
2023/12/31 01:04:32;;;;;;;27.42;25.33;;;;;;;4.71;100.00;101474.72;4959597;28;20460;-55
2023/12/31 01:06:59;;;;;;;29.40;27.08;;;;;;;4.92;100.00;101480.53;4961107;28;20054;-55
2023/12/31 01:09:27;;;;;;;28.15;25.77;;;;;;;4.75;100.00;101479.53;4970784;28;20054;-55
2023/12/31 01:11:54;;;;;;;27.60;25.50;;;;;;;4.93;100.00;101479.56;4969437;28;20049;-56
2023/12/31 01:14:20;;;;;;;27.85;25.70;;;;;;;4.92;100.00;101480.53;4964402;28;20066;-55
2023/12/31 01:16:47;;;;;;;28.05;25.95;;;;;;;4.58;100.00;101483.78;4960903;28;20058;-61
2023/12/31 01:19:16;;;;;;;27.02;24.92;;;;;;;4.71;100.00;101477.34;4962944;28;20074;-55
2023/12/31 01:21:43;;;;;;;26.30;24.30;;;;;;;4.77;100.00;101485.47;4958394;28;20050;-55
2023/12/31 01:24:09;;;;;;;30.85;28.45;;;;;;;4.90;100.00;101484.28;4960522;28;20758;-55
2023/12/31 01:26:38;;;;;;;30.98;28.58;;;;;;;4.83;100.00;101484.88;4963200;28;20046;-55
2023/12/31 01:29:04;;;;;;;32.33;29.63;;;;;;;4.80;100.00;101479.09;4969581;28;20531;-61
2023/12/31 01:31:31;;;;;;;28.75;26.48;;;;;;;4.86;100.00;101475.03;4960848;28;20492;-61
2023/12/31 01:33:59;;;;;;;29.73;27.42;;;;;;;4.51;100.00;101485.38;4958306;28;20047;-55
2023/12/31 01:36:25;;;;;;;31.02;28.70;;;;;;;4.53;100.00;101482.59;4962286;28;20051;-55
2023/12/31 01:38:52;;;;;;;28.83;26.55;;;;;;;4.55;100.00;101485.91;4965917;28;20508;-56
2023/12/31 01:41:19;;;;;;;25.95;23.95;;;;;;;4.74;100.00;101483.13;4962263;28;20062;-61
2023/12/31 01:43:49;;;;;;;29.65;27.35;;;;;;;4.64;100.00;101485.00;4968046;28;20050;-61
2023/12/31 01:46:27;;;;;;;35.05;32.45;;;;;;;4.77;100.00;101480.19;4961689;28;20066;-56
2023/12/31 01:48:54;;;;;;;28.70;26.40;;;;;;;4.52;100.00;101480.94;4958649;28;20051;-60
2023/12/31 01:51:21;;;;;;;28.10;25.90;;;;;;;4.47;100.00;101480.53;4966349;28;20066;-55
2023/12/31 01:53:49;;;;;;;28.30;26.10;;;;;;;4.40;100.00;101477.69;4958453;28;20551;-55
2023/12/31 01:56:16;;;;;;;31.73;29.30;;;;;;;4.22;100.00;101480.25;4960867;28;20054;-55
2023/12/31 01:58:43;;;;;;;27.75;25.55;;;;;;;4.38;100.00;101473.53;4966007;28;20046;-59
2023/12/31 02:01:12;;;;;;;27.73;25.67;;;;;;;4.18;100.00;101475.44;4956265;28;20472;-61
2023/12/31 02:03:39;;;;;;;28.52;26.00;;;;;;;3.95;100.00;101483.69;4972782;28;20066;-55
2023/12/31 02:06:05;;;;;;;27.00;24.95;;;;;;;3.99;100.00;101481.59;4955887;28;20548;-55
2023/12/31 02:08:33;;;;;;;29.80;27.42;;;;;;;3.98;100.00;101482.56;4966540;28;20053;-55
2023/12/31 02:11:00;;;;;;;29.23;26.92;;;;;;;3.69;100.00;101478.22;4962772;28;20054;-55
2023/12/31 02:13:26;;;;;;;27.63;25.45;;;;;;;3.66;100.00;101483.75;4966177;28;20065;-55
2023/12/31 02:15:53;;;;;;;32.45;29.67;;;;;;;3.62;100.00;101477.13;4962143;28;20319;-56
2023/12/31 02:18:24;;;;;;;28.60;26.33;;;;;;;3.48;100.00;101483.69;4964977;28;20082;-55
2023/12/31 02:20:51;;;;;;;28.90;26.70;;;;;;;3.46;100.00;101479.53;4966487;28;20113;-55
2023/12/31 02:23:18;;;;;;;28.50;26.35;;;;;;;3.50;100.00;101480.91;4963866;28;20047;-55
2023/12/31 02:25:50;;;;;;;32.35;29.85;;;;;;;3.53;100.00;101476.19;4959189;28;20046;-55
2023/12/31 02:28:19;;;;;;;27.77;25.65;;;;;;;3.50;100.00;101476.47;4971979;28;20051;-55
2023/12/31 02:30:45;;;;;;;28.13;25.80;;;;;;;3.09;100.00;101472.38;4959262;28;20055;-55
2023/12/31 02:33:12;;;;;;;32.40;30.10;;;;;;;3.07;100.00;101471.69;4965777;28;20051;-55
2023/12/31 02:35:40;;;;;;;30.63;28.13;;;;;;;3.15;100.00;101477.06;4960924;28;20071;-55
2023/12/31 02:38:07;;;;;;;27.70;25.50;;;;;;;2.84;100.00;101471.94;4965182;28;20046;-61
2023/12/31 02:40:34;;;;;;;27.80;25.60;;;;;;;2.75;100.00;101478.00;4966542;28;20055;-61
2023/12/31 02:43:01;;;;;;;30.33;27.92;;;;;;;2.69;100.00;101487.28;4962864;28;20062;-61
2023/12/31 02:45:29;;;;;;;36.42;33.83;;;;;;;2.95;100.00;101481.47;4957891;28;20043;-61
2023/12/31 02:47:56;;;;;;;31.25;28.85;;;;;;;2.68;100.00;101482.97;4960304;28;20070;-61
2023/12/31 02:50:23;;;;;;;30.73;28.08;;;;;;;2.84;100.00;101485.06;4958105;28;20062;-61
2023/12/31 02:52:50;;;;;;;34.28;30.00;;;;;;;2.61;100.00;101491.53;4961112;28;20500;-61
2023/12/31 02:55:17;;;;;;;34.67;32.03;;;;;;;2.58;100.00;101495.25;4970062;28;20436;-62
2023/12/31 02:57:43;;;;;;;28.90;26.40;;;;;;;2.19;100.00;101494.28;4964553;28;20062;-62
2023/12/31 03:00:11;;;;;;;27.70;25.55;;;;;;;2.29;100.00;101495.97;4961461;28;20086;-61
2023/12/31 03:02:40;;;;;;;31.20;28.80;;;;;;;2.21;100.00;101502.84;4963353;28;20074;-63
2023/12/31 03:05:08;;;;;;;33.85;30.80;;;;;;;2.36;100.00;101508.56;4954749;28;20133;-63
2023/12/31 03:07:35;;;;;;;29.60;27.23;;;;;;;1.85;100.00;101505.03;4960429;28;20487;-63
2023/12/31 03:10:02;;;;;;;29.02;26.83;;;;;;;1.96;100.00;101510.19;4964482;28;20051;-63
2023/12/31 03:12:29;;;;;;;30.90;28.55;;;;;;;1.94;100.00;101511.28;4959241;28;20121;-57
2023/12/31 03:14:56;;;;;;;30.38;28.10;;;;;;;1.76;100.00;101511.06;4967866;28;20050;-57
2023/12/31 03:17:23;;;;;;;29.27;26.92;;;;;;;1.88;100.00;101503.97;4962837;28;20051;-57
2023/12/31 03:19:52;;;;;;;27.77;25.77;;;;;;;1.77;100.00;101513.53;4960870;28;20058;-57
2023/12/31 03:22:19;;;;;;;28.58;26.48;;;;;;;1.79;100.00;101511.63;4965911;28;20057;-57
2023/12/31 03:24:45;;;;;;;29.05;26.90;;;;;;;1.87;100.00;101507.50;4969196;28;20050;-55
2023/12/31 03:27:12;;;;;;;30.42;28.23;;;;;;;1.91;100.00;101519.41;4964785;28;20440;-57
2023/12/31 03:29:39;;;;;;;26.63;24.30;;;;;;;1.78;100.00;101511.75;4984480;28;20609;-55
2023/12/31 03:32:06;;;;;;;26.27;24.27;;;;;;;1.51;100.00;101514.88;4965538;28;20055;-55
2023/12/31 03:34:36;;;;;;;29.45;27.25;;;;;;;1.64;100.00;101509.47;4965052;28;20050;-55
2023/12/31 03:37:05;;;;;;;31.05;28.80;;;;;;;1.59;100.00;101513.28;4964732;28;20532;-57
2023/12/31 03:39:31;;;;;;;28.90;26.80;;;;;;;1.39;100.00;101514.09;4971097;28;20452;-58
2023/12/31 03:41:58;;;;;;;27.27;25.17;;;;;;;1.43;100.00;101515.53;4969759;28;20055;-57
2023/12/31 03:44:25;;;;;;;27.15;25.05;;;;;;;1.31;100.00;101522.59;4965337;28;20050;-55
2023/12/31 03:46:52;;;;;;;30.40;28.13;;;;;;;1.28;100.00;101530.69;4971293;28;20553;-57
2023/12/31 03:49:19;;;;;;;27.65;25.55;;;;;;;1.38;100.00;101522.91;4963105;28;20055;-57
2023/12/31 03:51:45;;;;;;;25.45;23.38;;;;;;;1.24;100.00;101523.22;4968410;28;20815;-57
2023/12/31 03:54:14;;;;;;;26.23;24.10;;;;;;;1.28;100.00;101520.22;4966157;28;20065;-57
2023/12/31 03:56:41;;;;;;;29.65;27.48;;;;;;;1.14;100.00;101521.34;4964639;28;20506;-57
2023/12/31 03:59:08;;;;;;;27.90;25.90;;;;;;;1.32;100.00;101519.00;4966873;28;20058;-57
2023/12/31 04:01:43;;;;;;;24.65;22.85;;;;;;;1.16;100.00;101520.41;4960041;28;20496;-57
2023/12/31 04:04:10;;;;;;;25.80;23.90;;;;;;;0.88;100.00;101518.25;4969851;28;20497;-57
2023/12/31 04:06:36;;;;;;;30.45;28.08;;;;;;;0.95;100.00;101530.81;4972823;28;20061;-57
2023/12/31 04:09:03;;;;;;;30.73;27.88;;;;;;;0.86;100.00;101532.38;4977104;28;20522;-57
2023/12/31 04:11:32;;;;;;;25.52;23.55;;;;;;;0.87;100.00;101529.63;4975803;28;20496;-57
2023/12/31 04:13:58;;;;;;;25.95;23.95;;;;;;;0.84;100.00;101529.06;4967429;28;20055;-57
2023/12/31 04:16:25;;;;;;;26.70;24.60;;;;;;;0.96;100.00;101528.06;4960253;28;20062;-57
2023/12/31 04:18:52;;;;;;;22.58;20.85;;;;;;;0.72;100.00;101543.94;4960093;28;20465;-57
2023/12/31 04:21:19;;;;;;;27.38;25.02;;;;;;;0.37;100.00;101539.69;4960087;28;20394;-58
2023/12/31 04:23:46;;;;;;;24.30;22.63;;;;;;;0.65;100.00;101548.00;4965663;28;20050;-57
2023/12/31 04:26:13;;;;;;;24.67;22.88;;;;;;;0.67;100.00;101546.94;4960415;28;20051;-57
2023/12/31 04:28:41;;;;;;;23.52;21.73;;;;;;;0.71;100.00;101549.31;4959293;28;20066;-57
2023/12/31 04:31:08;;;;;;;24.23;22.30;;;;;;;0.57;100.00;101553.81;4959171;28;20055;-57
2023/12/31 04:33:35;;;;;;;25.83;23.92;;;;;;;0.53;100.00;101551.56;4961315;28;20062;-61
2023/12/31 04:36:04;;;;;;;25.17;23.20;;;;;;;0.75;100.00;101548.91;4969122;28;20047;-62
2023/12/31 04:38:31;;;;;;;23.58;21.98;;;;;;;0.49;100.00;101553.59;4958329;28;20061;-57
2023/12/31 04:40:58;;;;;;;26.67;24.77;;;;;;;0.47;100.00;101567.75;4958240;28;20481;-57
2023/12/31 04:43:25;;;;;;;25.52;23.73;;;;;;;0.26;100.00;101567.63;4963538;28;20051;-57
2023/12/31 04:45:53;;;;;;;23.50;21.73;;;;;;;0.44;100.00;101572.25;4961119;28;20433;-63
2023/12/31 04:48:20;;;;;;;21.80;20.20;;;;;;;0.54;100.00;101567.13;4963296;28;20536;-57
2023/12/31 04:50:47;;;;;;;21.52;19.95;;;;;;;0.26;100.00;101576.28;4971735;28;20137;-62
2023/12/31 04:53:15;;;;;;;23.70;21.90;;;;;;;0.18;100.00;101571.66;4960993;28;20077;-62
2023/12/31 04:55:42;;;;;;;21.88;20.33;;;;;;;0.19;100.00;101575.94;4960707;28;20102;-62
2023/12/31 04:58:09;;;;;;;22.70;21.10;;;;;;;0.10;100.00;101573.19;4965327;28;20284;-62
2023/12/31 05:00:36;;;;;;;24.02;21.80;;;;;;;0.08;100.00;101577.69;4959009;28;20062;-58
2023/12/31 05:03:05;;;;;;;24.40;22.70;;;;;;;0.15;100.00;101573.66;4963273;28;20058;-57
2023/12/31 05:05:31;;;;;;;24.25;22.45;;;;;;;0.20;100.00;101576.75;4956974;28;20051;-57
2023/12/31 05:07:58;;;;;;;25.90;23.88;;;;;;;0.25;100.00;101579.03;4962184;28;20066;-57
2023/12/31 05:10:25;;;;;;;25.92;24.13;;;;;;;0.35;100.00;101580.81;4954017;28;20062;-55
2023/12/31 05:12:52;;;;;;;22.42;20.70;;;;;;;0.29;100.00;101575.22;4964899;28;20054;-57
2023/12/31 05:15:19;;;;;;;23.08;21.50;;;;;;;-0.27;100.00;101571.56;4961265;28;20058;-57
2023/12/31 05:17:46;;;;;;;25.10;23.30;;;;;;;-0.42;100.00;101571.84;4964929;28;20129;-57
2023/12/31 05:20:14;;;;;;;24.23;22.52;;;;;;;-0.08;100.00;101575.41;4959567;28;20614;-57
2023/12/31 05:22:41;;;;;;;22.63;21.02;;;;;;;-0.11;100.00;101586.09;4962768;28;20047;-57
2023/12/31 05:25:08;;;;;;;23.00;20.95;;;;;;;0.66;100.00;101584.47;4963800;28;20057;-57
2023/12/31 05:27:35;;;;;;;22.08;20.20;;;;;;;0.46;100.00;101579.97;4965675;28;20061;-57
2023/12/31 05:30:02;;;;;;;22.48;20.88;;;;;;;0.30;100.00;101587.31;4967480;28;20051;-57
2023/12/31 05:32:29;;;;;;;22.75;21.20;;;;;;;0.43;100.00;101588.06;4959172;28;20055;-58
2023/12/31 05:34:56;;;;;;;24.75;22.65;;;;;;;0.36;100.00;101586.84;4963062;28;20109;-57
2023/12/31 05:37:24;;;;;;;24.33;22.60;;;;;;;0.15;100.00;101595.41;4958112;28;20054;-57
2023/12/31 05:39:51;;;;;;;25.48;23.42;;;;;;;0.17;100.00;101592.66;4962396;28;20083;-57
2023/12/31 05:42:18;;;;;;;23.17;21.50;;;;;;;0.31;100.00;101589.84;4981493;28;20058;-57
2023/12/31 05:44:47;;;;;;;23.65;21.45;;;;;;;0.29;100.00;101590.91;4959088;28;20063;-62
2023/12/31 05:47:14;;;;;;;22.58;20.92;;;;;;;0.24;100.00;101593.84;4965899;28;20055;-57
2023/12/31 05:49:41;;;;;;;23.30;21.60;;;;;;;0.17;100.00;101597.88;4961984;28;20054;-57
2023/12/31 05:52:09;;;;;;;20.23;19.02;;;;;;;0.09;100.00;101597.63;4965111;28;20055;-57
2023/12/31 05:54:40;;;;;;;22.45;20.40;;;;;;;0.04;100.00;101598.00;4956963;28;20599;-57
2023/12/31 05:57:06;;;;;;;19.42;18.23;;;;;;;0.09;100.00;101600.25;4958964;28;20578;-57
2023/12/31 05:59:33;;;;;;;20.92;19.50;;;;;;;0.21;100.00;101604.53;4958514;28;20051;-56
2023/12/31 06:02:00;;;;;;;20.55;19.25;;;;;;;0.31;100.00;101599.47;4960331;28;20054;-57
2023/12/31 06:04:27;;;;;;;21.27;19.92;;;;;;;0.21;100.00;101596.69;4960245;28;20472;-57
2023/12/31 06:06:54;;;;;;;21.83;20.40;;;;;;;0.31;100.00;101600.28;4962656;28;20047;-57
2023/12/31 06:09:21;;;;;;;20.25;19.05;;;;;;;0.35;100.00;101593.03;4959682;28;20422;-57
2023/12/31 06:11:49;;;;;;;20.38;19.17;;;;;;;0.43;100.00;101595.91;4957327;28;20074;-57
2023/12/31 06:14:16;;;;;;;20.83;19.52;;;;;;;0.18;100.00;101600.41;4963957;28;20153;-56
2023/12/31 06:16:43;;;;;;;20.05;18.85;;;;;;;0.44;100.00;101601.00;4961714;28;20527;-57
2023/12/31 06:19:10;;;;;;;21.30;20.00;;;;;;;0.81;100.00;101602.53;4961697;28;20055;-57
2023/12/31 06:21:36;;;;;;;21.70;20.30;;;;;;;1.08;100.00;101596.91;4954945;28;20059;-57
2023/12/31 06:24:04;;;;;;;22.83;21.33;;;;;;;1.17;100.00;101598.78;4965797;28;20050;-57
2023/12/31 06:26:30;;;;;;;21.80;20.38;;;;;;;1.43;100.00;101598.47;4962395;28;20513;-57
2023/12/31 06:28:59;;;;;;;25.77;23.42;;;;;;;1.67;100.00;101604.31;4955869;28;20059;-57
2023/12/31 06:31:26;;;;;;;23.50;21.80;;;;;;;2.27;100.00;101608.03;4955739;28;20490;-57
2023/12/31 06:33:53;;;;;;;21.63;20.20;;;;;;;2.58;100.00;101617.69;4954689;28;20058;-62
2023/12/31 06:36:20;;;;;;;24.60;22.70;;;;;;;2.52;100.00;101619.88;4963555;28;20061;-62
2023/12/31 06:38:47;;;;;;;27.23;24.73;;;;;;;2.51;100.00;101620.00;4957114;28;20134;-62
2023/12/31 06:41:14;;;;;;;26.30;24.27;;;;;;;2.62;100.00;101619.91;4967421;28;20054;-62
2023/12/31 06:43:41;;;;;;;26.95;24.73;;;;;;;2.86;100.00;101624.00;4957917;28;20051;-62
2023/12/31 06:46:10;;;;;;;26.80;24.88;;;;;;;2.93;100.00;101615.44;4962134;28;20051;-62
2023/12/31 06:48:37;;;;;;;25.90;23.80;;;;;;;3.10;100.00;101621.03;4957919;28;20394;-62
2023/12/31 06:51:04;;;;;;;28.35;26.25;;;;;;;3.56;100.00;101623.00;4972972;28;20046;-62
2023/12/31 06:53:33;;;;;;;30.70;28.27;;;;;;;4.26;100.00;101639.41;4956531;28;20047;-62
2023/12/31 06:56:04;;;;;;;28.48;26.20;;;;;;;4.52;100.00;101625.63;4966274;28;20501;-62
2023/12/31 06:58:31;;;;;;;27.60;25.50;;;;;;;4.83;100.00;101632.28;4969101;28;20421;-62
2023/12/31 07:00:57;;;;;;;33.15;29.92;;;;;;;4.54;100.00;101624.53;4962562;28;20069;-62
2023/12/31 07:03:26;;;;;;;30.88;27.95;;;;;;;5.04;100.00;101631.22;4965786;28;20535;-57
2023/12/31 07:05:52;;;;;;;27.00;24.90;;;;;;;5.62;100.00;101620.25;4965815;28;20513;-57
2023/12/31 07:08:19;;;;;;;28.55;25.60;;;;;;;6.00;100.00;101628.03;4968928;28;20461;-57
2023/12/31 07:10:46;;;;;;;30.88;27.63;;;;;;;5.83;100.00;101629.66;4968853;28;20062;-57
2023/12/31 07:13:14;;;;;;;28.20;25.80;;;;;;;6.09;100.00;101640.28;4969068;28;20055;-57
2023/12/31 07:15:44;;;;;;;29.58;26.92;;;;;;;6.92;100.00;101635.31;4964546;28;20493;-62
2023/12/31 07:18:11;;;;;;;29.10;26.90;;;;;;;7.14;100.00;101633.06;4970079;28;20543;-56
2023/12/31 07:20:39;;;;;;;30.52;27.48;;;;;;;7.66;100.00;101628.38;4966667;28;20447;-57
2023/12/31 07:23:06;;;;;;;29.70;27.38;;;;;;;7.76;100.00;101623.75;4968301;28;20055;-57
2023/12/31 07:25:34;;;;;;;28.50;26.50;;;;;;;8.58;100.00;101631.59;4966098;28;20433;-57
2023/12/31 07:28:01;;;;;;;31.85;29.08;;;;;;;7.63;100.00;101626.06;4968626;28;20496;-56
2023/12/31 07:30:27;;;;;;;30.52;28.33;;;;;;;8.35;100.00;101630.63;4967466;28;20047;-57
2023/12/31 07:32:54;;;;;;;28.67;26.63;;;;;;;7.95;100.00;101627.03;4968850;28;20060;-57
2023/12/31 07:35:21;;;;;;;28.38;26.10;;;;;;;9.06;100.00;101629.72;4964429;28;20051;-57
2023/12/31 07:37:49;;;;;;;30.70;28.30;;;;;;;8.62;100.00;101632.91;4964243;28;20055;-58
2023/12/31 07:40:16;;;;;;;31.80;29.30;;;;;;;9.44;100.00;101624.56;4960018;28;20059;-57
2023/12/31 07:42:43;;;;;;;29.90;27.70;;;;;;;8.89;100.00;101630.81;4972023;28;20042;-57
2023/12/31 07:45:10;;;;;;;29.45;27.17;;;;;;;9.17;100.00;101633.84;4972262;28;20432;-63
2023/12/31 07:47:39;;;;;;;27.15;24.85;;;;;;;9.83;100.00;101628.88;4967663;28;20042;-62
2023/12/31 07:50:07;;;;;;;27.10;24.90;;;;;;;10.24;100.00;101629.34;4959211;28;20051;-62
2023/12/31 07:52:34;;;;;;;26.10;24.23;;;;;;;10.23;100.00;101624.22;4963458;28;20540;-57
2023/12/31 07:55:03;;;;;;;29.55;27.15;;;;;;;9.78;100.00;101628.63;4961705;28;20061;-57
2023/12/31 07:57:30;;;;;;;29.30;26.70;;;;;;;10.15;100.00;101626.94;4963651;28;20050;-57
2023/12/31 07:59:57;;;;;;;27.60;25.15;;;;;;;9.79;100.00;101628.41;4962525;28;20463;-57
2023/12/31 08:02:24;;;;;;;23.48;21.55;;;;;;;10.75;100.00;101637.44;4966552;28;20066;-57
2023/12/31 08:04:51;;;;;;;24.23;22.15;;;;;;;10.44;100.00;101644.75;4956987;28;20051;-56
2023/12/31 08:07:21;;;;;;;23.65;22.05;;;;;;;9.99;100.00;101644.69;4960036;28;20055;-56
2023/12/31 08:09:48;;;;;;;22.42;20.83;;;;;;;10.49;100.00;101639.75;4968322;28;20437;-62
2023/12/31 08:12:17;;;;;;;41.75;34.88;;;;;;;11.75;100.00;101640.38;4962717;28;20105;-62
2023/12/31 08:14:44;;;;;;;26.98;24.48;;;;;;;11.98;100.00;101630.38;4968981;28;20432;-57
2023/12/31 08:17:10;;;;;;;23.02;21.33;;;;;;;12.46;100.00;101638.47;4967914;28;21004;-57
2023/12/31 08:19:37;;;;;;;48.13;43.38;;;;;;;11.91;100.00;101640.97;4966441;28;20062;-57
2023/12/31 08:22:04;;;;;;;44.85;40.92;;;;;;;13.35;100.00;101639.53;4965517;28;20050;-57
2023/12/31 08:24:31;;;;;;;27.70;25.23;;;;;;;12.82;100.00;101640.94;4952339;28;20053;-57
2023/12/31 08:26:58;;;;;;;25.05;23.25;;;;;;;13.68;100.00;101642.25;4958183;28;20129;-56
2023/12/31 08:29:26;;;;;;;24.77;22.98;;;;;;;13.67;100.00;101644.06;4961351;28;20064;-57
2023/12/31 08:31:55;;;;;;;24.95;23.25;;;;;;;13.59;100.00;101648.81;4965851;28;20055;-57
2023/12/31 08:34:22;;;;;;;24.42;22.73;;;;;;;13.58;100.00;101636.47;4966629;28;20823;-57
2023/12/31 08:36:49;;;;;;;26.98;24.83;;;;;;;13.47;100.00;101645.91;4971269;28;20488;-57
2023/12/31 08:39:16;;;;;;;27.90;24.83;;;;;;;13.45;100.00;101640.75;4976076;28;20051;-57
2023/12/31 08:41:43;;;;;;;27.10;24.92;;;;;;;14.31;100.00;101641.81;4977973;28;20436;-57
2023/12/31 08:44:09;;;;;;;26.70;24.52;;;;;;;14.44;100.00;101636.44;4974550;28;20070;-57
2023/12/31 08:46:38;;;;;;;22.48;20.85;;;;;;;15.06;100.00;101640.34;4970448;28;20078;-57
2023/12/31 08:49:05;;;;;;;22.45;20.75;;;;;;;15.94;100.00;101636.94;4962305;28;20058;-57
2023/12/31 08:51:32;;;;;;;21.80;20.20;;;;;;;16.20;100.00;101633.19;4967730;28;20068;-57
2023/12/31 08:53:59;;;;;;;20.70;19.10;;;;;;;15.70;100.00;101638.59;4970459;28;20520;-57
2023/12/31 08:56:26;;;;;;;24.75;22.52;;;;;;;15.47;100.00;101640.97;4972929;28;20054;-57
2023/12/31 08:58:53;;;;;;;23.55;21.75;;;;;;;15.29;100.00;101631.00;4967323;28;20489;-57
2023/12/31 09:01:20;;;;;;;24.38;22.48;;;;;;;17.15;100.00;101643.47;4975192;28;20525;-57
2023/12/31 09:03:48;;;;;;;26.00;23.70;;;;;;;16.94;100.00;101636.75;4970202;28;20058;-57
2023/12/31 09:06:15;;;;;;;23.30;21.40;;;;;;;16.72;100.00;101635.53;4971446;28;20425;-57
2023/12/31 09:08:42;;;;;;;23.63;21.83;;;;;;;16.61;100.00;101633.59;4970832;28;20046;-57
2023/12/31 09:11:08;;;;;;;26.45;24.25;;;;;;;17.53;100.00;101634.28;4974272;28;20065;-55
2023/12/31 09:13:35;;;;;;;26.30;24.38;;;;;;;17.87;100.00;101631.09;4966872;28;20289;-57
2023/12/31 09:16:02;;;;;;;24.75;22.75;;;;;;;17.49;100.00;101632.28;4955703;28;20428;-57
2023/12/31 09:18:29;;;;;;;23.48;21.48;;;;;;;17.06;100.00;101631.41;4960835;28;20061;-57
2023/12/31 09:20:56;;;;;;;23.65;21.75;;;;;;;17.43;100.00;101631.34;4949043;28;20051;-57
2023/12/31 09:23:23;;;;;;;25.98;23.98;;;;;;;17.31;100.00;101627.81;4960661;28;20070;-57
2023/12/31 09:25:51;;;;;;;22.92;21.23;;;;;;;16.87;100.00;101627.97;4957362;28;20078;-57
2023/12/31 09:28:18;;;;;;;22.98;21.17;;;;;;;16.54;100.00;101628.31;4967572;28;20117;-58
2023/12/31 09:30:45;;;;;;;24.48;22.67;;;;;;;17.58;100.00;101629.03;4960852;28;20106;-57
2023/12/31 09:33:12;;;;;;;24.00;22.20;;;;;;;17.62;100.00;101626.72;4959123;28;20067;-55
2023/12/31 09:35:39;;;;;;;23.85;22.05;;;;;;;18.28;100.00;101616.75;4962779;28;20050;-57
2023/12/31 09:38:07;;;;;;;24.10;22.27;;;;;;;17.63;100.00;101617.59;4964727;28;20055;-56
2023/12/31 09:40:34;;;;;;;23.30;21.50;;;;;;;17.47;100.00;101620.97;4961607;28;20444;-57
2023/12/31 09:43:03;;;;;;;23.88;21.90;;;;;;;18.36;100.00;101610.16;4961597;28;20580;-62
2023/12/31 09:45:31;;;;;;;23.27;21.58;;;;;;;16.98;100.00;101614.84;4971057;28;20429;-62
2023/12/31 09:48:00;;;;;;;25.73;23.73;;;;;;;17.59;100.00;101611.88;4961099;28;20055;-58
2023/12/31 09:50:30;;;;;;;25.00;23.00;;;;;;;17.44;100.00;101613.38;4964831;28;20046;-62
2023/12/31 09:52:58;;;;;;;24.15;22.25;;;;;;;18.42;100.00;101601.16;4969515;28;20061;-57
2023/12/31 09:55:27;;;;;;;26.90;24.80;;;;;;;17.81;100.00;101598.72;4962279;28;20524;-57
2023/12/31 09:57:54;;;;;;;25.40;23.42;;;;;;;17.84;100.00;101605.50;4967370;28;20042;-57
2023/12/31 10:00:22;;;;;;;22.35;20.65;;;;;;;18.17;100.00;101599.53;4964244;28;20134;-57
2023/12/31 10:02:51;;;;;;;26.30;24.13;;;;;;;19.16;100.00;101594.03;4971431;28;20109;-58
2023/12/31 10:05:18;;;;;;;23.80;21.85;;;;;;;17.94;100.00;101597.66;4974714;28;20053;-57
2023/12/31 10:07:46;;;;;;;23.70;21.80;;;;;;;18.87;100.00;101578.94;4962162;28;20432;-57
2023/12/31 10:10:14;;;;;;;23.45;21.60;;;;;;;19.02;100.00;101579.22;4965588;28;20398;-57
2023/12/31 10:12:42;;;;;;;23.58;21.58;;;;;;;18.83;100.00;101578.63;4965059;28;20050;-57
2023/12/31 10:15:09;;;;;;;26.52;24.42;;;;;;;18.04;100.00;101575.59;4966421;28;20059;-57
2023/12/31 10:17:37;;;;;;;24.85;22.92;;;;;;;15.85;100.00;101575.81;4964447;28;20082;-57
2023/12/31 10:20:05;;;;;;;26.42;24.35;;;;;;;19.11;100.00;101568.91;4964833;28;20046;-57
2023/12/31 10:22:35;;;;;;;26.63;24.42;;;;;;;18.91;100.00;101563.94;4961173;28;20055;-57
2023/12/31 10:25:14;;;;;;;24.88;22.52;;;;;;;18.41;100.00;101567.25;4964158;28;20057;-57
2023/12/31 10:27:43;;;;;;;22.33;20.50;;;;;;;18.12;100.00;101558.28;4962175;28;20054;-57
2023/12/31 10:30:11;;;;;;;24.23;22.23;;;;;;;17.97;100.00;101556.91;4963458;28;20058;-57
2023/12/31 10:32:38;;;;;;;22.75;20.95;;;;;;;15.36;100.00;101559.50;4969377;28;20497;-57
2023/12/31 10:35:06;;;;;;;23.63;21.70;;;;;;;19.05;100.00;101556.41;4963723;28;20051;-57
2023/12/31 10:37:34;;;;;;;26.58;24.48;;;;;;;19.43;100.00;101545.75;4969528;28;20054;-55
2023/12/31 10:40:16;;;;;;;24.50;22.30;;;;;;;15.43;100.00;101541.56;4968609;28;20051;-57
2023/12/31 10:42:49;;;;;;;27.25;24.73;;;;;;;17.47;100.00;101537.72;4966460;28;20086;-57
2023/12/31 10:45:17;;;;;;;;;;;;;;;17.94;100.00;101535.03;4969016;28;20054;-57
2023/12/31 10:47:45;;;;;;;24.50;22.60;;;;;;;17.36;100.00;101523.19;4967662;28;20017;-57
2023/12/31 10:50:17;;;;;;;24.73;22.73;;;;;;;19.01;100.00;101514.88;4968858;28;20585;-57
2023/12/31 10:52:46;;;;;;;29.25;26.95;;;;;;;20.33;100.00;101510.63;4966472;28;20047;-57
2023/12/31 10:55:14;;;;;;;27.90;25.80;;;;;;;19.14;100.00;101501.91;4966932;28;20059;-57
2023/12/31 10:57:43;;;;;;;24.20;22.20;;;;;;;18.95;100.00;101511.28;4968949;28;20051;-57
2023/12/31 11:00:13;;;;;;;24.70;22.80;;;;;;;19.05;100.00;101498.00;4961250;28;20062;-57
2023/12/31 11:02:42;;;;;;;25.70;23.45;;;;;;;19.59;100.00;101497.50;4967422;28;20061;-57
2023/12/31 11:05:10;;;;;;;25.00;23.00;;;;;;;18.80;100.00;101492.97;4961881;28;20062;-57
2023/12/31 11:07:37;;;;;;;23.77;21.90;;;;;;;19.36;100.00;101488.53;4960768;28;20051;-57